| time (UTC) | temp F | wind direction | speed MPH | gust MPH | rain 1hr in | rain 24hr in | rain mn in | humidity % | barometer mb |
| 20260507002916 | 74 | 23 | 3.0 | 5.0 | 0.00 | 0.00 | 0.00 | 56 | 1018.0 |
| 20260507001916 | 74 | 45 | 4.0 | 9.0 | 0.00 | 0.00 | 0.00 | 52 | 1018.0 |
| 20260507000919 | 75 | 0 | 3.0 | 4.0 | 0.00 | 0.00 | 0.00 | 53 | 1018.0 |
| 20260506235916 | 75 | 0 | 1.0 | 2.0 | 0.00 | 0.00 | 0.00 | 52 | 1018.0 |
| 20260506234916 | 76 | 0 | 3.0 | 6.0 | 0.00 | 0.00 | 0.00 | 52 | 1018.0 |
| 20260506233935 | 76 | 45 | 2.0 | 5.0 | 0.00 | 0.00 | 0.00 | 51 | 1018.0 |
| 20260506232955 | 77 | 270 | 2.0 | 7.0 | 0.00 | 0.00 | 0.00 | 52 | 1018.0 |
| 20260506231915 | 76 | 315 | 2.0 | 3.0 | 0.00 | 0.00 | 0.00 | 52 | 1018.1 |
| 20260506230916 | 76 | 45 | 2.0 | 4.0 | 0.00 | 0.00 | 0.00 | 50 | 1018.2 |
| 20260506225915 | 76 | 338 | 3.0 | 5.0 | 0.00 | 0.00 | 0.00 | 53 | 1018.2 |
| 20260506224915 | 76 | 23 | 4.0 | 8.0 | 0.00 | 0.00 | 0.00 | 53 | 1018.4 |
| 20260506223916 | 76 | 0 | 4.0 | 6.0 | 0.00 | 0.00 | 0.00 | 53 | 1018.4 |
| 20260506222916 | 77 | 23 | 5.0 | 11.0 | 0.00 | 0.00 | 0.00 | 50 | 1018.5 |
| 20260506221915 | 77 | 45 | 1.0 | 3.0 | 0.00 | 0.00 | 0.00 | 50 | 1018.7 |
| 20260506220921 | 78 | 0 | 4.0 | 9.0 | 0.00 | 0.00 | 0.00 | 49 | 1018.8 |
| 20260506215916 | 78 | 315 | 2.0 | 5.0 | 0.00 | 0.00 | 0.00 | 48 | 1018.8 |
| 20260506214916 | 77 | 338 | 2.0 | 5.0 | 0.00 | 0.00 | 0.00 | 50 | 1019.0 |
| 20260506213916 | 77 | 0 | 3.0 | 5.0 | 0.00 | 0.00 | 0.00 | 49 | 1019.1 |
| 20260506212915 | 77 | 293 | 2.0 | 5.0 | 0.00 | 0.00 | 0.00 | 50 | 1019.2 |
| 20260506211916 | 76 | 338 | 1.0 | 4.0 | 0.00 | 0.00 | 0.00 | 51 | 1019.3 |
| 20260506210955 | 75 | 0 | 2.0 | 3.0 | 0.00 | 0.00 | 0.00 | 50 | 1019.4 |
| 20260506205915 | 75 | 338 | 2.0 | 3.0 | 0.00 | 0.00 | 0.00 | 52 | 1019.6 |
| 20260506204915 | 75 | 315 | 2.0 | 4.0 | 0.00 | 0.00 | 0.00 | 53 | 1019.6 |
| 20260506203916 | 74 | 315 | 1.0 | 3.0 | 0.00 | 0.00 | 0.00 | 55 | 1019.8 |
| 20260506202915 | 73 | 0.0 | 1.0 | 0.00 | 0.00 | 0.00 | 55 | 1019.9 | |
| 20260506201915 | 73 | 338 | 2.0 | 4.0 | 0.00 | 0.00 | 0.00 | 54 | 1020.1 |
| 20260506200916 | 73 | 45 | 2.0 | 4.0 | 0.00 | 0.00 | 0.00 | 54 | 1020.1 |
| 20260506195915 | 72 | 338 | 2.0 | 4.0 | 0.00 | 0.00 | 0.00 | 56 | 1020.2 |
| 20260506194915 | 72 | 0 | 2.0 | 4.0 | 0.00 | 0.00 | 0.00 | 57 | 1020.2 |
| 20260506193915 | 71 | 45 | 3.0 | 7.0 | 0.00 | 0.00 | 0.00 | 56 | 1020.3 |
| 20260506192915 | 72 | 0 | 4.0 | 6.0 | 0.00 | 0.00 | 0.00 | 55 | 1020.3 |
| 20260506191915 | 72 | 68 | 2.0 | 3.0 | 0.00 | 0.00 | 0.00 | 57 | 1020.5 |
| 20260506190915 | 72 | 45 | 1.0 | 3.0 | 0.00 | 0.00 | 0.00 | 57 | 1020.5 |
| 20260506185915 | 72 | 315 | 2.0 | 3.0 | 0.00 | 0.00 | 0.00 | 58 | 1020.7 |
| 20260506184915 | 71 | 315 | 2.0 | 3.0 | 0.00 | 0.00 | 0.00 | 59 | 1020.8 |
| 20260506183935 | 71 | 315 | 3.0 | 5.0 | 0.00 | 0.00 | 0.00 | 58 | 1020.8 |
| 20260506182915 | 70 | 315 | 1.0 | 2.0 | 0.00 | 0.00 | 0.00 | 60 | 1021.0 |
| 20260506181915 | 70 | 0.0 | 2.0 | 0.00 | 0.00 | 0.00 | 61 | 1021.0 | |
| 20260506180915 | 69 | 23 | 3.0 | 5.0 | 0.00 | 0.00 | 0.00 | 61 | 1020.9 |
| 20260506175915 | 68 | 0 | 1.0 | 4.0 | 0.00 | 0.00 | 0.00 | 62 | 1020.9 |
| 20260506174915 | 67 | 293 | 1.0 | 2.0 | 0.00 | 0.00 | 0.00 | 67 | 1021.0 |
| 20260506173915 | 66 | 293 | 1.0 | 2.0 | 0.00 | 0.00 | 0.00 | 69 | 1021.0 |
| 20260506172915 | 65 | 293 | 1.0 | 3.0 | 0.00 | 0.00 | 0.00 | 72 | 1021.0 |
| 20260506171915 | 64 | 293 | 3.0 | 4.0 | 0.00 | 0.00 | 0.00 | 72 | 1021.0 |
| 20260506170915 | 63 | 293 | 2.0 | 4.0 | 0.00 | 0.00 | 0.00 | 75 | 1021.1 |
| 20260506165916 | 62 | 293 | 1.0 | 2.0 | 0.00 | 0.00 | 0.00 | 76 | 1021.1 |
| 20260506164915 | 61 | 293 | 2.0 | 4.0 | 0.00 | 0.00 | 0.00 | 76 | 1021.1 |
| 20260506163915 | 61 | 293 | 1.0 | 2.0 | 0.00 | 0.00 | 0.00 | 78 | 1021.1 |
| 20260506162915 | 61 | 293 | 1.0 | 1.0 | 0.00 | 0.00 | 0.00 | 78 | 1021.2 |
| 20260506161915 | 60 | 293 | 2.0 | 4.0 | 0.00 | 0.00 | 0.00 | 80 | 1021.2 |
| 20260506160915 | 60 | 293 | 1.0 | 2.0 | 0.00 | 0.00 | 0.00 | 80 | 1021.0 |
| 20260506155915 | 59 | 158 | 1.0 | 3.0 | 0.00 | 0.00 | 0.00 | 82 | 1021.0 |
| 20260506154917 | 58 | 0.0 | 1.0 | 0.00 | 0.00 | 0.00 | 83 | 1021.0 | |
| 20260506153917 | 58 | 158 | 1.0 | 2.0 | 0.00 | 0.00 | 0.00 | 83 | 1021.0 |
| 20260506152917 | 58 | 158 | 2.0 | 3.0 | 0.00 | 0.00 | 0.00 | 83 | 1021.0 |
| 20260506151937 | 57 | 0.0 | 1.0 | 0.00 | 0.00 | 0.00 | 83 | 1021.1 | |
| 20260506150917 | 57 | 158 | 1.0 | 3.0 | 0.00 | 0.00 | 0.00 | 84 | 1021.1 |
| 20260506145917 | 57 | 0.0 | 0.0 | 0.00 | 0.00 | 0.00 | 84 | 1021.1 | |
| 20260506144917 | 57 | 0.0 | 2.0 | 0.00 | 0.00 | 0.00 | 83 | 1021.1 | |
| 20260506143917 | 56 | 0.0 | 1.0 | 0.00 | 0.00 | 0.00 | 83 | 1021.0 | |
| 20260506142918 | 56 | 113 | 1.0 | 2.0 | 0.00 | 0.00 | 0.00 | 83 | 1020.9 |
| 20260506141918 | 56 | 113 | 1.0 | 2.0 | 0.00 | 0.00 | 0.00 | 83 | 1021.0 |
| 20260506140918 | 56 | 0.0 | 1.0 | 0.00 | 0.00 | 0.00 | 83 | 1020.9 | |
| 20260506135947 | 56 | 0.0 | 1.0 | 0.00 | 0.00 | 0.00 | 83 | 1020.8 | |
| 20260506134939 | 56 | 68 | 1.0 | 2.0 | 0.00 | 0.00 | 0.00 | 83 | 1020.5 |
| 20260506133928 | 56 | 68 | 1.0 | 4.0 | 0.00 | 0.00 | 0.00 | 83 | 1020.4 |
| 20260506132936 | 56 | 0.0 | 0.0 | 0.00 | 0.00 | 0.00 | 83 | 1020.3 | |
| 20260506131916 | 56 | 0.0 | 0.0 | 0.00 | 0.00 | 0.00 | 83 | 1020.2 | |
| 20260506130916 | 56 | 0.0 | 0.0 | 0.00 | 0.00 | 0.00 | 82 | 1020.2 | |
| 20260506125917 | 56 | 68 | 1.0 | 3.0 | 0.00 | 0.00 | 0.00 | 83 | 1020.1 |
| 20260506124917 | 57 | 0.0 | 0.0 | 0.00 | 0.00 | 0.00 | 83 | 1020.0 | |
| 20260506123916 | 57 | 0.0 | 1.0 | 0.00 | 0.00 | 0.00 | 82 | 1019.9 | |
| 20260506122917 | 57 | 0.0 | 0.0 | 0.00 | 0.00 | 0.00 | 82 | 1019.9 | |
| 20260506121937 | 57 | 0.0 | 0.0 | 0.00 | 0.00 | 0.00 | 82 | 1019.9 | |
| 20260506120917 | 57 | 0.0 | 0.0 | 0.00 | 0.00 | 0.00 | 82 | 1019.9 | |
| 20260506115917 | 57 | 0.0 | 0.0 | 0.00 | 0.00 | 0.00 | 82 | 1019.8 | |
| 20260506114937 | 57 | 0.0 | 0.0 | 0.00 | 0.00 | 0.00 | 82 | 1019.8 | |
| 20260506113916 | 57 | 0.0 | 0.0 | 0.00 | 0.00 | 0.00 | 82 | 1019.7 | |
| 20260506112936 | 57 | 0.0 | 0.0 | 0.00 | 0.00 | 0.00 | 82 | 1019.7 | |
| 20260506111916 | 57 | 0.0 | 0.0 | 0.00 | 0.00 | 0.00 | 82 | 1019.6 | |
| 20260506110916 | 57 | 0.0 | 0.0 | 0.00 | 0.00 | 0.00 | 81 | 1019.6 | |
| 20260506105916 | 57 | 0.0 | 0.0 | 0.00 | 0.00 | 0.00 | 81 | 1019.5 | |
| 20260506104916 | 57 | 0.0 | 0.0 | 0.00 | 0.00 | 0.00 | 81 | 1019.4 | |
| 20260506103916 | 57 | 0.0 | 0.0 | 0.00 | 0.00 | 0.00 | 81 | 1019.3 | |
| 20260506102916 | 57 | 0.0 | 0.0 | 0.00 | 0.00 | 0.00 | 80 | 1019.4 | |
| 20260506101916 | 57 | 0.0 | 0.0 | 0.00 | 0.00 | 0.00 | 80 | 1019.4 | |
| 20260506100921 | 57 | 0.0 | 0.0 | 0.00 | 0.00 | 0.00 | 80 | 1019.5 | |
| 20260506095916 | 57 | 0.0 | 0.0 | 0.00 | 0.00 | 0.00 | 80 | 1019.4 | |
| 20260506094916 | 57 | 0.0 | 0.0 | 0.00 | 0.00 | 0.00 | 80 | 1019.4 | |
| 20260506093936 | 57 | 0.0 | 0.0 | 0.00 | 0.00 | 0.00 | 80 | 1019.3 | |
| 20260506092916 | 57 | 0.0 | 0.0 | 0.00 | 0.00 | 0.00 | 80 | 1019.4 | |
| 20260506091916 | 57 | 0.0 | 0.0 | 0.00 | 0.00 | 0.00 | 80 | 1019.4 | |
| 20260506090936 | 57 | 0.0 | 0.0 | 0.00 | 0.00 | 0.00 | 80 | 1019.4 | |
| 20260506085919 | 57 | 0.0 | 0.0 | 0.00 | 0.00 | 0.00 | 80 | 1019.4 | |
| 20260506084936 | 57 | 0.0 | 0.0 | 0.00 | 0.00 | 0.00 | 80 | 1019.4 | |
| 20260506083916 | 57 | 0.0 | 0.0 | 0.00 | 0.00 | 0.00 | 79 | 1019.4 | |
| 20260506082916 | 57 | 68 | 1.0 | 2.0 | 0.00 | 0.00 | 0.00 | 79 | 1019.3 |
| 20260506081916 | 58 | 0.0 | 0.0 | 0.00 | 0.00 | 0.00 | 79 | 1019.4 | |
| 20260506080916 | 58 | 0.0 | 0.0 | 0.00 | 0.00 | 0.00 | 79 | 1019.4 | |
| 20260506072916 | 58 | 0.0 | 0.0 | 0.00 | 0.00 | 0.00 | 78 | 1019.2 | |
| 20260506071916 | 58 | 0.0 | 0.0 | 0.00 | 0.00 | 0.00 | 78 | 1019.2 | |
| 20260506070921 | 58 | 0.0 | 0.0 | 0.00 | 0.00 | 0.00 | 78 | 1019.0 | |
| 20260506061916 | 58 | 0.0 | 1.0 | 0.00 | 0.00 | 0.00 | 75 | 1018.8 | |
| 20260506060957 | 59 | 0.0 | 1.0 | 0.00 | 0.00 | 0.00 | 75 | 1018.6 | |
| 20260506050916 | 59 | 0.0 | 1.0 | 0.00 | 0.00 | 0.00 | 74 | 1018.2 | |
| 20260506044936 | 59 | 0.0 | 1.0 | 0.00 | 0.00 | 0.00 | 73 | 1018.0 | |
| 20260506043916 | 59 | 0.0 | 1.0 | 0.00 | 0.00 | 0.00 | 73 | 1017.9 | |
| 20260506042916 | 59 | 0.0 | 1.0 | 0.00 | 0.00 | 0.00 | 72 | 1017.9 | |
| 20260506041916 | 59 | 0.0 | 1.0 | 0.00 | 0.00 | 0.00 | 72 | 1017.8 | |
| 20260506040916 | 59 | 0.0 | 1.0 | 0.00 | 0.00 | 0.00 | 72 | 1017.6 | |
| 20260506035936 | 59 | 0.0 | 1.0 | 0.00 | 0.00 | 0.00 | 72 | 1017.4 | |
| 20260506034916 | 60 | 113 | 1.0 | 2.0 | 0.00 | 0.00 | 0.00 | 72 | 1017.4 |
| 20260506033916 | 60 | 0.0 | 1.0 | 0.00 | 0.00 | 0.00 | 72 | 1017.3 | |
| 20260506032936 | 60 | 0.0 | 1.0 | 0.00 | 0.00 | 0.00 | 72 | 1017.0 | |
| 20260506031916 | 60 | 0.0 | 1.0 | 0.00 | 0.00 | 0.00 | 72 | 1017.0 | |
| 20260506030916 | 60 | 113 | 1.0 | 2.0 | 0.00 | 0.00 | 0.00 | 72 | 1016.9 |
| 20260506025916 | 60 | 0.0 | 0.0 | 0.00 | 0.00 | 0.00 | 71 | 1016.7 | |
| 20260506024916 | 60 | 113 | 1.0 | 2.0 | 0.00 | 0.00 | 0.00 | 71 | 1016.7 |
| 20260506023916 | 61 | 0.0 | 1.0 | 0.00 | 0.00 | 0.00 | 71 | 1016.5 | |
| 20260506022916 | 61 | 0.0 | 1.0 | 0.00 | 0.00 | 0.00 | 71 | 1016.4 | |
| 20260506021918 | 61 | 0.0 | 2.0 | 0.00 | 0.00 | 0.00 | 71 | 1016.3 | |
| 20260506020916 | 61 | 0.0 | 2.0 | 0.00 | 0.00 | 0.00 | 71 | 1016.2 | |
| 20260506015916 | 61 | 0.0 | 1.0 | 0.00 | 0.00 | 0.00 | 71 | 1016.4 | |
| 20260506014916 | 61 | 0.0 | 1.0 | 0.00 | 0.00 | 0.00 | 71 | 1016.3 | |
| 20260506013936 | 61 | 0.0 | 0.0 | 0.00 | 0.00 | 0.00 | 71 | 1016.4 | |
| 20260506012936 | 61 | 0.0 | 1.0 | 0.00 | 0.00 | 0.00 | 71 | 1016.4 | |
| 20260506011916 | 62 | 113 | 1.0 | 3.0 | 0.00 | 0.00 | 0.00 | 70 | 1016.3 |
| 20260506010916 | 62 | 0.0 | 0.0 | 0.00 | 0.00 | 0.00 | 70 | 1016.3 | |
| 20260506005916 | 62 | 113 | 1.0 | 4.0 | 0.00 | 0.00 | 0.00 | 69 | 1016.2 |
| 20260506004915 | 62 | 0.0 | 2.0 | 0.00 | 0.00 | 0.00 | 69 | 1016.3 | |
| 20260506003916 | 62 | 113 | 1.0 | 2.0 | 0.00 | 0.00 | 0.00 | 69 | 1016.3 |